Time;durP1;ratioP1;P1;durP2;ratioP2;P2;SDS_P1;SDS_P2;PMS_P1;PMS_P2;Temp;Humidity;BMP_temperature;BMP_pressure;BME280_temperature;BME280_humidity;BME280_pressure;Samples;Min_cycle;Max_cycle;Signal;HPM_P1;HPM_P2
2022/08/09 00:00:00;;;;;;;4.72;2.70;;;24.70;47.40;25.90;101699.00;;;;5028177;28;20174;-42
2022/08/09 00:02:26;;;;;;;3.88;2.70;;;24.80;47.60;25.90;101700.00;;;;5027260;28;20217;-42
2022/08/09 00:04:51;;;;;;;2.63;2.42;;;24.70;47.50;25.90;101694.00;;;;5028225;28;20686;-42
2022/08/09 00:07:17;;;;;;;3.55;2.60;;;24.80;47.60;25.80;101710.00;;;;5043111;28;20225;-44
2022/08/09 00:09:43;;;;;;;3.50;2.70;;;24.70;47.60;25.80;101693.00;;;;5028297;28;20198;-42
2022/08/09 00:12:09;;;;;;;4.38;2.80;;;24.70;47.80;25.80;101691.00;;;;5027797;28;20205;-42
2022/08/09 00:14:35;;;;;;;2.83;2.60;;;24.70;47.60;25.80;101701.00;;;;5028030;28;20167;-41
2022/08/09 00:17:01;;;;;;;2.85;2.65;;;24.70;47.80;25.80;101701.00;;;;5027586;28;20191;-43
2022/08/09 00:19:27;;;;;;;3.38;2.80;;;24.70;48.00;25.70;101694.00;;;;5043373;28;20589;-42
2022/08/09 00:21:52;;;;;;;3.42;2.80;;;24.60;48.00;25.70;101688.00;;;;5028283;28;20203;-42
2022/08/09 00:24:18;;;;;;;3.05;2.63;;;24.70;48.10;25.70;101685.00;;;;5028440;28;20174;-42
2022/08/09 00:26:44;;;;;;;4.25;3.20;;;24.60;48.10;25.70;101683.00;;;;5043307;28;20198;-44
2022/08/09 00:29:10;;;;;;;2.95;2.70;;;24.60;48.10;25.70;101681.00;;;;5027564;28;20254;-42
2022/08/09 00:31:35;;;;;;;2.72;2.53;;;24.60;48.10;25.60;101690.00;;;;5027439;28;20308;-42
2022/08/09 00:34:01;;;;;;;2.88;2.58;;;24.50;48.20;25.60;101682.00;;;;5027641;28;20171;-42
2022/08/09 00:36:27;;;;;;;3.92;2.88;;;24.50;48.20;25.60;101682.00;;;;5027397;28;20226;-43
2022/08/09 00:38:53;;;;;;;4.13;2.90;;;24.50;48.30;25.50;101680.00;;;;5027010;28;20182;-42
2022/08/09 00:41:21;;;;;;;3.53;2.60;;;24.40;48.30;25.50;101683.00;;;;5027213;28;20204;-42
2022/08/09 00:43:48;;;;;;;4.40;2.63;;;24.40;48.50;25.40;101676.00;;;;5027596;28;20202;-43
2022/08/09 00:46:14;;;;;;;3.88;2.70;;;24.40;48.70;25.50;101686.00;;;;5027174;28;20198;-42
2022/08/09 00:48:40;;;;;;;3.53;2.80;;;24.40;48.70;25.40;101613.00;;;;5027140;28;20533;-42
2022/08/09 00:51:06;;;;;;;3.13;2.45;;;24.40;48.70;25.40;101688.00;;;;5027080;28;20230;-42
2022/08/09 00:53:35;;;;;;;2.97;2.60;;;24.40;48.70;25.40;101688.00;;;;5027234;28;20696;-42
2022/08/09 00:56:02;;;;;;;4.67;2.57;;;24.40;48.80;25.40;101690.00;;;;5027214;28;20198;-42
2022/08/09 00:58:30;;;;;;;3.57;2.73;;;24.30;49.50;25.30;101693.00;;;;5027220;28;20580;-42
2022/08/09 01:00:55;;;;;;;3.23;2.60;;;24.30;49.10;25.30;101697.00;;;;5042725;28;20261;-42
2022/08/09 01:03:39;;;;;;;2.70;2.30;;;24.30;49.10;25.30;101695.00;;;;5027117;28;20724;-42
2022/08/09 01:06:32;;;;;;;3.25;2.65;;;24.20;49.20;25.30;101635.00;;;;5027583;28;20222;-42
2022/08/09 01:09:23;;;;;;;2.63;2.43;;;24.30;49.90;25.30;101698.00;;;;5042033;28;20242;-42
2022/08/09 01:12:28;;;;;;;3.20;2.53;;;24.30;49.30;25.20;101706.00;;;;5027007;28;20742;-43
2022/08/09 01:15:09;;;;;;;4.07;2.70;;;24.20;49.20;25.20;101701.00;;;;5038498;28;20163;-41
2022/08/09 01:18:26;;;;;;;2.77;2.50;;;24.20;49.20;25.20;101644.00;;;;5025716;28;20175;-41
2022/08/09 01:21:25;;;;;;;2.90;2.55;;;24.20;49.20;25.10;101702.00;;;;5021820;28;20183;-42
2022/08/09 01:24:40;;;;;;;3.40;2.50;;;24.10;49.40;25.10;101704.00;;;;5042290;28;20171;-42
2022/08/09 01:27:08;;;;;;;3.43;2.40;;;24.10;49.40;25.10;101702.00;;;;5005343;28;20810;-44
2022/08/09 01:29:45;;;;;;;2.67;2.47;;;24.10;49.50;25.00;101700.00;;;;5041962;28;20199;-40
2022/08/09 01:32:12;;;;;;;3.40;2.67;;;24.10;49.60;25.00;101695.00;;;;5041854;28;20193;-43
2022/08/09 01:34:37;;;;;;;3.43;2.60;;;24.10;49.70;25.00;101693.00;;;;5041966;28;20645;-43
2022/08/09 01:37:05;;;;;;;2.97;2.40;;;24.10;49.70;25.00;101688.00;;;;5041658;28;20179;-43
2022/08/09 01:39:34;;;;;;;3.13;2.40;;;24.10;49.80;25.00;101682.00;;;;5041562;28;20171;-43
2022/08/09 01:42:01;;;;;;;2.77;2.50;;;24.10;49.80;25.00;101682.00;;;;5041611;28;20168;-42
2022/08/09 01:44:27;;;;;;;2.73;2.37;;;24.00;49.70;25.00;101673.00;;;;5041197;28;20171;-42
2022/08/09 01:46:53;;;;;;;3.13;2.40;;;24.00;49.80;25.00;101688.00;;;;5041424;28;20285;-43
2022/08/09 01:49:19;;;;;;;3.20;2.57;;;24.00;49.80;25.00;101659.00;;;;5041674;28;20232;-43
2022/08/09 01:51:53;;;;;;;2.70;2.40;;;23.90;49.90;24.90;101691.00;;;;5041546;28;20195;-43
2022/08/09 01:54:20;;;;;;;3.30;2.70;;;23.90;50.70;24.90;101677.00;;;;5040584;28;20664;-43
2022/08/09 01:56:46;;;;;;;3.23;2.60;;;23.90;50.20;24.90;101682.00;;;;5025967;28;20189;-42
2022/08/09 01:59:15;;;;;;;2.50;2.30;;;23.80;50.30;24.80;101682.00;;;;5041247;28;20167;-43
2022/08/09 02:01:40;;;;;;;2.73;2.53;;;23.80;50.40;24.80;101690.00;;;;5024527;28;20175;-44
2022/08/09 02:04:06;;;;;;;2.80;2.40;;;23.80;50.50;24.80;101692.00;;;;5041534;28;20804;-48
2022/08/09 02:09:17;;;;;;;4.27;2.53;;;23.70;50.70;24.70;101697.00;;;;5038960;28;20165;-43
2022/08/09 02:11:42;;;;;;;2.80;2.50;;;23.70;50.70;24.70;101686.00;;;;5041330;28;20198;-43
2022/08/09 02:14:08;;;;;;;3.00;2.33;;;23.80;50.80;24.70;101693.00;;;;5041413;28;20174;-43
2022/08/09 02:16:36;;;;;;;3.50;2.30;;;23.80;50.80;24.70;101693.00;;;;5041110;28;20810;-42
2022/08/09 02:19:02;;;;;;;2.30;2.10;;;23.80;50.80;24.70;101693.00;;;;5041062;28;20237;-43
2022/08/09 02:21:28;;;;;;;2.50;2.30;;;23.70;50.80;24.70;101684.00;;;;5041088;28;20199;-43
2022/08/09 02:23:55;;;;;;;2.47;2.27;;;23.70;51.00;24.60;101693.00;;;;5041533;28;20179;-43
2022/08/09 02:26:21;;;;;;;2.60;2.40;;;23.70;51.00;24.60;101693.00;;;;5040523;28;20198;-42
2022/08/09 02:28:50;;;;;;;2.40;2.20;;;23.70;51.00;24.60;101683.00;;;;5025619;28;20553;-42
2022/08/09 02:31:24;;;;;;;3.13;2.30;;;23.60;51.00;24.60;101689.00;;;;5040584;28;20692;-42
2022/08/09 02:33:53;;;;;;;2.97;2.60;;;23.60;51.00;24.60;101689.00;;;;5040483;28;20159;-43
2022/08/09 02:36:22;;;;;;;2.67;2.30;;;23.60;51.20;24.60;101689.00;;;;5040826;28;20724;-42
2022/08/09 02:38:51;;;;;;;5.80;2.30;;;23.60;51.30;24.50;101690.00;;;;5040701;28;20179;-43
2022/08/09 02:41:31;;;;;;;2.87;2.30;;;23.60;51.30;24.50;101691.00;;;;5040816;28;20174;-42
2022/08/09 02:44:13;;;;;;;3.07;2.40;;;23.60;51.40;24.50;101697.00;;;;5039197;28;20171;-42
2022/08/09 02:46:39;;;;;;;2.90;2.20;;;23.60;51.40;24.40;101689.00;;;;5040541;28;20850;-42
2022/08/09 02:49:08;;;;;;;3.63;2.50;;;23.50;51.40;24.40;101681.00;;;;5040732;28;20175;-42
2022/08/09 02:51:36;;;;;;;2.77;2.40;;;23.50;51.60;24.40;101694.00;;;;5041027;28;20233;-43
2022/08/09 02:54:02;;;;;;;3.37;2.50;;;23.50;51.70;24.40;101678.00;;;;5041001;28;20175;-42
2022/08/09 02:56:29;;;;;;;3.33;2.33;;;23.40;51.70;24.40;101682.00;;;;5041072;28;20281;-43
2022/08/09 02:58:55;;;;;;;3.57;2.30;;;23.40;51.70;24.40;101670.00;;;;5041182;28;20175;-42
2022/08/09 03:01:21;;;;;;;4.10;2.50;;;23.40;51.80;24.40;101681.00;;;;5041055;28;20181;-43
2022/08/09 03:03:47;;;;;;;2.87;2.30;;;23.40;51.80;24.40;101669.00;;;;5040989;28;20710;-43
2022/08/09 03:06:13;;;;;;;3.63;2.30;;;23.40;51.80;24.40;101681.00;;;;5040963;28;20191;-44
2022/08/09 03:08:45;;;;;;;3.60;2.40;;;23.40;51.90;24.30;101680.00;;;;5040537;28;20179;-43
2022/08/09 03:11:16;;;;;;;3.07;2.50;;;23.40;51.90;24.30;101681.00;;;;5040629;28;20187;-43
2022/08/09 03:13:44;;;;;;;3.37;2.40;;;23.40;52.00;24.30;101683.00;;;;5040718;28;20198;-42
2022/08/09 03:16:10;;;;;;;2.30;2.10;;;23.40;51.90;24.30;101687.00;;;;5040403;28;20885;-42
2022/08/09 03:18:35;;;;;;;3.03;2.37;;;23.40;52.00;24.30;101682.00;;;;5040822;28;20167;-42
2022/08/09 03:21:02;;;;;;;2.50;2.30;;;23.40;51.90;24.30;101698.00;;;;5040773;28;20182;-43
2022/08/09 03:23:29;;;;;;;2.60;2.40;;;23.40;52.10;24.30;101682.00;;;;5023491;28;20850;-42
2022/08/09 03:25:55;;;;;;;2.87;2.23;;;23.30;52.10;24.20;101682.00;;;;5040534;28;20568;-44
2022/08/09 03:28:20;;;;;;;2.27;2.07;;;23.30;52.30;24.20;101670.00;;;;5039905;28;20182;-43
2022/08/09 03:30:46;;;;;;;3.33;2.23;;;23.30;52.20;24.20;101677.00;;;;5040490;28;20255;-44
2022/08/09 03:33:12;;;;;;;2.87;2.47;;;23.20;52.20;24.20;101693.00;;;;5040399;28;20198;-42
2022/08/09 03:35:38;;;;;;;3.70;2.40;;;23.30;52.30;24.20;101691.00;;;;5024059;28;20203;-42
2022/08/09 03:38:04;;;;;;;3.20;2.10;;;23.30;52.30;24.20;101684.00;;;;5043269;28;20174;-41
2022/08/09 03:40:30;;;;;;;3.53;2.40;;;23.30;52.30;24.20;101692.00;;;;5044264;28;20241;-42
2022/08/09 03:42:56;;;;;;;4.00;2.40;;;23.30;52.40;24.10;101683.00;;;;5027119;28;20179;-42
2022/08/09 03:45:21;;;;;;;4.07;2.60;;;23.20;52.80;24.10;101686.00;;;;5027623;28;20429;-42
2022/08/09 03:47:47;;;;;;;4.73;3.67;;;23.20;52.80;24.10;101696.00;;;;5028445;28;20182;-42
2022/08/09 03:50:13;;;;;;;3.13;2.70;;;23.20;53.40;24.10;101696.00;;;;5028075;28;20309;-40
2022/08/09 03:52:41;;;;;;;2.83;2.40;;;23.20;52.80;24.10;101697.00;;;;5043553;28;20702;-41
2022/08/09 03:55:07;;;;;;;2.80;2.40;;;23.20;52.90;24.10;101679.00;;;;5028098;28;20167;-41
2022/08/09 03:57:33;;;;;;;2.73;2.33;;;23.20;52.80;24.10;101700.00;;;;5042470;28;20187;-41
2022/08/09 03:59:59;;;;;;;2.57;2.37;;;23.10;52.70;24.10;101699.00;;;;5043332;28;20642;-42
2022/08/09 04:02:25;;;;;;;2.57;2.30;;;23.10;52.80;24.10;101700.00;;;;5043146;28;20180;-42
2022/08/09 04:04:51;;;;;;;2.77;2.30;;;23.20;52.80;24.10;101700.00;;;;5043355;28;20261;-41
2022/08/09 04:07:17;;;;;;;3.63;2.60;;;23.20;52.80;24.00;101707.00;;;;5043257;28;20611;-41
2022/08/09 04:09:42;;;;;;;3.23;2.30;;;23.10;52.80;24.00;101710.00;;;;5027274;28;20175;-41
2022/08/09 04:12:08;;;;;;;2.73;2.43;;;23.10;52.80;24.00;101707.00;;;;5027380;28;20233;-42
2022/08/09 04:14:34;;;;;;;3.60;2.60;;;23.10;52.80;24.00;101712.00;;;;5027959;28;20217;-42
2022/08/09 04:17:00;;;;;;;3.37;2.30;;;23.10;52.80;24.00;101713.00;;;;5027098;28;20186;-42
2022/08/09 04:19:26;;;;;;;2.33;2.13;;;23.10;52.80;24.00;101715.00;;;;5027609;28;20253;-41
2022/08/09 04:21:51;;;;;;;4.00;2.50;;;23.10;52.70;24.00;101717.00;;;;5027790;28;20551;-41
2022/08/09 04:24:17;;;;;;;4.13;2.50;;;23.10;52.80;24.00;101721.00;;;;5027356;28;20602;-41
2022/08/09 04:26:43;;;;;;;2.93;2.53;;;23.10;52.80;24.00;101717.00;;;;5026316;28;20191;-42
2022/08/09 04:29:08;;;;;;;2.50;2.30;;;23.10;52.80;24.00;101720.00;;;;5041077;28;20207;-42
2022/08/09 04:31:34;;;;;;;3.23;2.47;;;23.10;52.80;24.00;101725.00;;;;5027241;28;20199;-42
2022/08/09 04:34:00;;;;;;;3.70;2.40;;;23.10;52.60;24.00;101722.00;;;;5025942;28;20171;-41
2022/08/09 04:36:28;;;;;;;3.83;2.37;;;23.10;52.70;24.00;101727.00;;;;5026970;28;20277;-41
2022/08/09 04:38:56;;;;;;;2.40;2.20;;;23.10;52.60;24.00;101728.00;;;;5027100;28;20179;-42
2022/08/09 04:41:22;;;;;;;2.30;2.10;;;23.10;52.50;24.00;101732.00;;;;5027113;28;20293;-42
2022/08/09 04:43:48;;;;;;;2.50;2.20;;;23.10;52.40;24.00;101733.00;;;;5027271;28;20669;-42
2022/08/09 04:46:13;;;;;;;2.70;2.30;;;23.20;52.60;24.00;101734.00;;;;5027163;28;20285;-43
2022/08/09 04:48:39;;;;;;;2.57;2.30;;;23.10;52.40;24.00;101736.00;;;;5026209;28;20250;-42
2022/08/09 04:51:05;;;;;;;2.70;2.40;;;23.10;52.50;24.00;101737.00;;;;5027556;28;20194;-42
2022/08/09 04:53:31;;;;;;;3.23;2.60;;;23.10;52.60;24.00;101749.00;;;;5027007;28;20178;-42
2022/08/09 04:55:57;;;;;;;2.73;2.40;;;23.10;52.50;24.00;101740.00;;;;5026803;28;20195;-42
2022/08/09 04:58:23;;;;;;;2.70;2.50;;;23.10;52.60;24.00;101746.00;;;;5026036;28;20637;-42
2022/08/09 05:00:49;;;;;;;4.17;2.63;;;23.10;52.50;24.00;101749.00;;;;5042662;28;20264;-42
2022/08/09 05:03:14;;;;;;;2.60;2.40;;;23.10;52.80;24.00;101741.00;;;;5043405;28;20229;-43
2022/08/09 05:05:40;;;;;;;2.33;2.13;;;23.10;52.70;24.00;101744.00;;;;5027219;28;20210;-42
2022/08/09 05:08:06;;;;;;;3.17;2.30;;;23.10;52.30;24.00;101743.00;;;;5026168;28;20186;-43
2022/08/09 05:10:32;;;;;;;3.10;2.27;;;23.10;52.00;24.00;101747.00;;;;5026365;28;20756;-42
2022/08/09 05:12:58;;;;;;;4.00;2.40;;;23.10;51.70;24.00;101755.00;;;;5041752;28;20355;-41
2022/08/09 05:15:25;;;;;;;2.60;2.40;;;23.20;51.80;24.00;101751.00;;;;5026452;28;20185;-41
2022/08/09 05:17:50;;;;;;;4.10;2.20;;;23.20;51.70;24.00;101763.00;;;;5025805;28;20171;-42
2022/08/09 05:20:16;;;;;;;2.93;2.20;;;23.20;51.60;24.00;101763.00;;;;5026587;28;20175;-44
2022/08/09 05:22:42;;;;;;;3.10;2.37;;;23.20;51.50;24.00;101762.00;;;;5026819;28;20171;-43
2022/08/09 05:25:08;;;;;;;3.80;2.10;;;23.20;51.30;24.00;101757.00;;;;5026299;28;20637;-42
2022/08/09 05:27:34;;;;;;;2.30;2.10;;;23.20;51.60;24.00;101766.00;;;;5025482;28;20179;-42
2022/08/09 05:30:00;;;;;;;3.17;2.57;;;23.20;51.70;24.00;101765.00;;;;5026319;28;20175;-43
2022/08/09 05:32:25;;;;;;;2.50;2.30;;;23.20;51.60;24.00;101761.00;;;;5026297;28;20203;-42
2022/08/09 05:34:51;;;;;;;2.63;2.37;;;23.20;51.50;24.00;101764.00;;;;5026056;28;20589;-42
2022/08/09 05:37:17;;;;;;;3.60;2.27;;;23.20;51.60;24.00;101767.00;;;;5025408;28;20544;-40
2022/08/09 05:39:43;;;;;;;2.57;2.30;;;23.20;51.60;24.00;101769.00;;;;5026099;28;20641;-41
2022/08/09 05:42:09;;;;;;;2.40;2.20;;;23.20;51.50;24.00;101756.00;;;;5026028;28;20558;-42
2022/08/09 05:44:35;;;;;;;2.70;2.50;;;23.20;52.10;24.00;101759.00;;;;5041348;28;20404;-41
2022/08/09 05:47:01;;;;;;;2.73;2.43;;;23.20;51.50;24.00;101760.00;;;;5041012;28;20611;-42
2022/08/09 05:49:27;;;;;;;2.50;2.30;;;23.20;51.90;24.00;101769.00;;;;5025882;28;20685;-43
2022/08/09 05:51:52;;;;;;;2.40;2.20;;;23.20;51.30;24.00;101773.00;;;;5026119;28;20209;-41
2022/08/09 05:54:18;;;;;;;2.60;2.40;;;23.20;51.20;24.00;101770.00;;;;5025611;28;20555;-41
2022/08/09 05:56:44;;;;;;;2.60;2.40;;;23.20;51.30;23.90;101770.00;;;;5025606;28;20692;-41
2022/08/09 05:59:10;;;;;;;2.50;2.30;;;23.20;51.40;23.90;101778.00;;;;5040631;28;20202;-41
2022/08/09 06:01:36;;;;;;;2.60;2.40;;;23.20;51.40;23.90;101771.00;;;;5025509;28;20461;-41
2022/08/09 06:04:01;;;;;;;3.57;2.60;;;23.20;51.40;23.90;101773.00;;;;5031760;28;20171;-45
2022/08/09 06:06:27;;;;;;;3.57;2.50;;;23.20;51.40;23.90;101774.00;;;;5032174;28;20203;-41
2022/08/09 06:08:53;;;;;;;2.40;2.20;;;23.20;51.40;23.90;101771.00;;;;5027885;28;20174;-41
2022/08/09 06:11:19;;;;;;;3.13;2.17;;;23.20;51.60;23.90;101770.00;;;;5026037;28;20198;-41
2022/08/09 06:13:45;;;;;;;3.70;2.40;;;23.20;51.60;23.90;101770.00;;;;5026192;28;20182;-40
2022/08/09 06:16:10;;;;;;;3.23;2.40;;;23.20;51.50;23.90;101782.00;;;;5025406;28;20198;-42
2022/08/09 06:18:37;;;;;;;2.47;2.27;;;23.20;51.50;23.90;101781.00;;;;5040268;28;20186;-42
2022/08/09 06:21:03;;;;;;;2.60;2.40;;;23.20;51.50;23.90;101775.00;;;;5025706;28;20175;-42
2022/08/09 06:23:30;;;;;;;2.77;2.50;;;23.20;51.60;23.80;101776.00;;;;5025127;28;20186;-41
2022/08/09 06:25:55;;;;;;;2.70;2.50;;;23.20;51.60;23.80;101771.00;;;;5025234;28;20205;-42
2022/08/09 06:28:21;;;;;;;4.03;2.40;;;23.20;51.60;23.80;101780.00;;;;5024355;28;20175;-42
2022/08/09 06:30:47;;;;;;;3.80;2.50;;;23.20;51.70;23.80;101783.00;;;;5024261;28;20190;-41
2022/08/09 06:33:13;;;;;;;2.90;2.60;;;23.20;51.90;23.80;101779.00;;;;5039979;28;20195;-43
2022/08/09 06:35:38;;;;;;;3.37;2.50;;;23.20;51.80;23.80;101778.00;;;;5040148;28;20233;-43
2022/08/09 06:38:04;;;;;;;4.20;2.70;;;23.20;51.90;23.80;101776.00;;;;5022871;28;20425;-43
2022/08/09 06:40:30;;;;;;;3.60;2.77;;;23.20;51.90;23.70;101779.00;;;;5024899;28;20229;-43
2022/08/09 06:42:56;;;;;;;2.87;2.50;;;23.20;51.90;23.80;101775.00;;;;5025313;28;20167;-42
2022/08/09 06:45:22;;;;;;;2.50;2.30;;;23.20;51.90;23.80;101783.00;;;;5025948;28;20194;-42
2022/08/09 06:47:48;;;;;;;2.60;2.40;;;23.20;51.90;23.80;101783.00;;;;5025638;28;20190;-40
2022/08/09 06:50:14;;;;;;;2.60;2.40;;;23.20;52.00;23.80;101786.00;;;;5025454;28;20762;-42
2022/08/09 06:52:44;;;;;;;2.70;2.33;;;23.10;51.90;23.80;101784.00;;;;5024994;28;20277;-40
2022/08/09 06:55:14;;;;;;;3.83;2.60;;;23.10;52.00;23.70;101781.00;;;;5025460;28;20217;-41
2022/08/09 06:57:40;;;;;;;2.50;2.30;;;23.10;52.10;23.80;101783.00;;;;5025066;28;20171;-44
2022/08/09 07:00:07;;;;;;;2.50;2.30;;;23.10;52.00;23.80;101788.00;;;;5040633;28;20708;-42
2022/08/09 07:02:33;;;;;;;3.10;2.37;;;23.10;52.10;23.70;101785.00;;;;5023623;28;20175;-43
2022/08/09 07:04:59;;;;;;;2.60;2.40;;;23.10;52.10;23.80;101789.00;;;;5024974;28;20281;-43
2022/08/09 07:07:25;;;;;;;3.37;2.40;;;23.10;52.10;23.70;101791.00;;;;5024642;28;20195;-41
2022/08/09 07:09:51;;;;;;;2.60;2.40;;;23.00;52.20;23.70;101793.00;;;;5025040;28;20156;-41
2022/08/09 07:12:16;;;;;;;2.70;2.50;;;23.10;52.30;23.80;101786.00;;;;5026994;28;20252;-41
2022/08/09 07:14:42;;;;;;;3.00;2.70;;;23.10;52.30;23.80;101789.00;;;;5029165;28;20206;-42
2022/08/09 07:17:08;;;;;;;4.00;3.00;;;23.10;52.20;23.80;101793.00;;;;5027142;28;20194;-44
2022/08/09 07:19:34;;;;;;;3.23;2.73;;;23.10;52.30;23.80;101732.00;;;;5029170;28;20178;-42
2022/08/09 07:22:00;;;;;;;3.30;3.00;;;23.10;52.30;23.80;101802.00;;;;5028374;28;20185;-43
2022/08/09 07:24:27;;;;;;;2.73;2.50;;;23.10;52.20;23.80;101793.00;;;;5028289;28;20203;-41
2022/08/09 07:26:53;;;;;;;3.13;2.80;;;23.10;52.20;23.80;101788.00;;;;5027995;28;20205;-41
2022/08/09 07:29:19;;;;;;;4.30;2.80;;;23.10;52.20;23.80;101737.00;;;;5028857;28;20254;-42
2022/08/09 07:31:44;;;;;;;5.37;2.70;;;23.20;52.30;23.80;101789.00;;;;5028858;28;20285;-42
2022/08/09 07:34:10;;;;;;;2.70;2.50;;;23.20;52.70;23.80;101785.00;;;;5028502;28;20645;-42
2022/08/09 07:36:36;;;;;;;3.10;2.80;;;23.20;52.50;23.80;101782.00;;;;5027880;28;20784;-42
2022/08/09 07:39:02;;;;;;;4.47;2.80;;;23.20;52.40;23.90;101788.00;;;;5027577;28;20190;-42
2022/08/09 07:41:28;;;;;;;3.80;3.00;;;23.30;52.90;23.90;101795.00;;;;5028865;28;20612;-42
2022/08/09 07:43:54;;;;;;;3.10;2.80;;;23.30;52.40;23.90;101784.00;;;;5026928;28;20187;-43
2022/08/09 07:46:20;;;;;;;3.20;2.90;;;23.30;52.50;23.90;101782.00;;;;5029000;28;20236;-42
2022/08/09 07:48:46;;;;;;;3.00;2.80;;;23.30;52.90;23.90;101770.00;;;;5027959;28;20233;-42
2022/08/09 07:51:15;;;;;;;4.63;3.20;;;23.30;52.90;23.70;101744.00;;;;4958221;28;20202;-45
2022/08/09 07:53:41;;;;;;;4.87;3.10;;;23.30;52.30;23.90;101780.00;;;;4976724;28;20184;-43
2022/08/09 07:56:06;;;;;;;4.50;3.10;;;23.30;52.50;23.90;101778.00;;;;5014143;28;20366;-42
2022/08/09 07:58:32;;;;;;;3.50;3.20;;;23.30;52.30;23.90;101780.00;;;;5018986;28;20209;-42
2022/08/09 08:00:58;;;;;;;3.10;2.80;;;23.40;52.50;23.90;101772.00;;;;5018770;28;20542;-41
2022/08/09 08:03:24;;;;;;;3.33;3.03;;;23.40;52.50;23.90;101778.00;;;;5022583;28;20175;-41
2022/08/09 08:05:50;;;;;;;4.17;3.13;;;23.40;52.30;24.00;101780.00;;;;5014084;28;20870;-42
2022/08/09 08:08:16;;;;;;;3.30;3.00;;;23.40;52.60;23.90;101782.00;;;;5023601;28;20190;-42
2022/08/09 08:10:42;;;;;;;4.10;3.23;;;23.40;51.90;24.00;101789.00;;;;5020899;28;22647;-41
2022/08/09 08:13:07;;;;;;;3.47;3.17;;;23.40;51.80;24.00;101791.00;;;;5024805;28;20234;-42
2022/08/09 08:15:33;;;;;;;4.57;3.33;;;23.40;51.50;23.90;101785.00;;;;5019733;28;20209;-41
2022/08/09 08:17:59;;;;;;;3.47;3.10;;;23.40;51.30;24.00;101790.00;;;;5018386;28;20189;-43
2022/08/09 08:20:26;;;;;;;3.90;3.20;;;23.40;51.10;24.00;101783.00;;;;5015612;28;20571;-41
2022/08/09 08:22:52;;;;;;;4.50;3.20;;;23.40;51.20;24.00;101793.00;;;;5015970;28;20187;-44
2022/08/09 08:25:18;;;;;;;3.20;2.90;;;23.40;51.30;24.00;101790.00;;;;5014917;28;20176;-43
2022/08/09 08:27:43;;;;;;;3.30;3.00;;;23.40;51.40;24.00;101801.00;;;;5018224;28;20176;-42
2022/08/09 08:30:10;;;;;;;3.40;3.10;;;23.40;51.70;24.00;101789.00;;;;5016280;28;20190;-42
2022/08/09 08:32:36;;;;;;;3.40;3.10;;;23.40;51.70;24.00;101794.00;;;;5016403;28;20564;-42
2022/08/09 08:35:02;;;;;;;3.20;3.00;;;23.40;51.80;24.00;101793.00;;;;5017508;28;20183;-41
2022/08/09 08:37:28;;;;;;;3.30;3.00;;;23.50;52.30;24.10;101801.00;;;;5023642;28;20198;-42
2022/08/09 08:39:54;;;;;;;4.17;3.20;;;23.50;51.90;24.10;101782.00;;;;5019917;28;20634;-42
2022/08/09 08:42:20;;;;;;;3.47;2.80;;;23.50;51.90;24.10;101782.00;;;;5012401;28;20167;-43
2022/08/09 08:44:52;;;;;;;3.63;3.20;;;23.50;51.70;24.10;101778.00;;;;5013900;28;20200;-42
2022/08/09 08:47:18;;;;;;;3.47;3.17;;;23.60;52.30;24.10;101786.00;;;;5027896;28;20188;-41
2022/08/09 08:49:43;;;;;;;3.50;3.20;;;23.60;52.30;24.10;101782.00;;;;5028822;28;20219;-41
2022/08/09 08:52:09;;;;;;;3.37;3.07;;;23.60;51.80;24.10;101767.00;;;;4890079;28;20327;-42
2022/08/09 08:54:35;;;;;;;4.17;3.30;;;23.60;52.20;24.20;101783.00;;;;5014260;28;20198;-41
2022/08/09 08:57:02;;;;;;;4.50;3.27;;;23.70;52.30;24.20;101792.00;;;;5045345;28;20201;-42
2022/08/09 08:59:28;;;;;;;3.80;3.40;;;23.60;52.10;24.20;101793.00;;;;5027066;28;20195;-41
2022/08/09 09:01:54;;;;;;;3.57;3.23;;;23.60;52.30;24.20;101780.00;;;;5025877;28;20745;-41
2022/08/09 09:04:20;;;;;;;4.83;3.70;;;23.60;51.80;24.20;101759.00;;;;5031758;28;20665;-42
2022/08/09 09:06:47;;;;;;;3.80;3.37;;;23.60;52.00;24.20;101800.00;;;;5012813;28;20551;-43
2022/08/09 09:09:14;;;;;;;4.07;3.30;;;23.60;52.00;24.20;101793.00;;;;5016753;28;20634;-41
2022/08/09 09:11:41;;;;;;;3.40;3.10;;;23.70;51.60;24.20;101799.00;;;;5016525;28;20210;-40
2022/08/09 09:14:18;;;;;;;3.40;3.10;;;23.70;51.50;24.20;101787.00;;;;5017126;28;20182;-42
2022/08/09 09:16:44;;;;;;;3.47;3.17;;;23.70;51.80;24.30;101790.00;;;;5034768;28;20201;-43
2022/08/09 09:19:10;;;;;;;4.53;3.30;;;23.70;52.00;24.30;101806.00;;;;5020087;28;20179;-42
2022/08/09 09:21:54;;;;;;;3.80;3.20;;;23.70;51.50;24.30;101798.00;;;;5019233;28;20273;-44
2022/08/09 09:24:25;;;;;;;7.30;3.63;;;23.70;51.60;24.30;101799.00;;;;5014893;28;20187;-41
2022/08/09 09:26:56;;;;;;;6.07;3.40;;;23.80;51.60;24.30;101803.00;;;;5030925;28;20194;-43
2022/08/09 09:29:36;;;;;;;6.33;3.50;;;23.80;51.40;24.30;101812.00;;;;5032885;28;20187;-42
2022/08/09 09:32:03;;;;;;;3.93;3.63;;;23.80;50.90;24.30;101797.00;;;;5017641;28;20397;-41
2022/08/09 09:34:28;;;;;;;3.63;3.33;;;23.80;51.10;24.30;101793.00;;;;5015732;28;20195;-41
2022/08/09 09:36:55;;;;;;;5.23;3.30;;;23.80;51.10;24.40;101800.00;;;;5017060;28;20226;-43
2022/08/09 09:39:22;;;;;;;4.47;3.30;;;23.90;51.60;24.40;101793.00;;;;5018396;28;20183;-41
2022/08/09 09:41:49;;;;;;;3.60;3.10;;;23.90;51.70;24.40;101780.00;;;;5013846;28;20282;-42
2022/08/09 09:44:25;;;;;;;3.10;2.83;;;23.80;51.70;24.40;101804.00;;;;5035995;28;20380;-42
2022/08/09 09:47:05;;;;;;;3.50;3.20;;;23.90;51.70;24.40;101796.00;;;;5011780;28;20222;-40
2022/08/09 09:49:31;;;;;;;4.97;3.47;;;23.80;51.40;24.40;101788.00;;;;5013485;28;20210;-41
2022/08/09 09:52:07;;;;;;;3.87;3.33;;;23.90;51.40;24.50;101797.00;;;;4856650;28;20297;-43
2022/08/09 09:54:45;;;;;;;3.97;3.23;;;24.00;51.70;24.50;101798.00;;;;5014498;28;22634;-41
2022/08/09 09:57:23;;;;;;;5.03;3.37;;;24.00;51.20;24.50;101791.00;;;;5013864;28;20203;-43
2022/08/09 09:59:51;;;;;;;3.40;3.10;;;24.00;51.00;24.50;101798.00;;;;5015047;28;20605;-42
2022/08/09 10:02:17;;;;;;;4.77;3.20;;;23.90;51.20;24.50;101801.00;;;;5031447;28;20172;-41
2022/08/09 10:04:44;;;;;;;3.60;3.30;;;24.00;51.60;24.60;101809.00;;;;5014932;28;20186;-43
2022/08/09 10:07:26;;;;;;;4.30;3.13;;;24.00;50.90;24.50;101805.00;;;;5018462;28;20194;-43
2022/08/09 10:09:56;;;;;;;3.90;3.30;;;24.00;50.50;24.60;101808.00;;;;5022347;28;20749;-43
2022/08/09 10:12:30;;;;;;;5.17;3.43;;;24.00;51.20;24.60;101811.00;;;;5013142;28;20215;-42
2022/08/09 10:15:14;;;;;;;4.43;3.30;;;24.10;51.10;24.60;101808.00;;;;5010914;28;20286;-43
2022/08/09 10:17:47;;;;;;;4.37;3.30;;;24.10;50.90;24.60;101798.00;;;;5003537;28;20187;-41
2022/08/09 10:20:18;;;;;;;4.30;3.50;;;24.10;50.80;24.60;101804.00;;;;5003672;28;20164;-43
2022/08/09 10:22:46;;;;;;;4.33;3.97;;;24.20;50.90;24.70;101793.00;;;;5003904;28;20564;-43
2022/08/09 10:25:11;;;;;;;3.73;3.30;;;24.20;51.20;24.70;101798.00;;;;5021110;28;20557;-42
2022/08/09 10:27:37;;;;;;;4.20;3.57;;;24.20;50.80;24.70;101796.00;;;;5004467;28;20172;-41
2022/08/09 10:30:05;;;;;;;4.37;3.50;;;24.20;50.70;24.70;101738.00;;;;5012028;28;20222;-41
2022/08/09 10:32:30;;;;;;;3.50;3.20;;;24.30;50.50;24.80;101798.00;;;;5014485;28;20204;-41
2022/08/09 10:34:56;;;;;;;5.00;3.30;;;24.20;50.10;24.80;101803.00;;;;5012147;28;20175;-42
2022/08/09 10:37:23;;;;;;;5.03;3.37;;;24.30;50.30;24.80;101806.00;;;;5010380;28;20284;-42
2022/08/09 10:39:49;;;;;;;5.40;3.30;;;24.30;50.30;24.90;101793.00;;;;5022026;28;20174;-42
2022/08/09 10:42:15;;;;;;;6.60;3.17;;;24.40;50.30;24.80;101801.00;;;;5018800;28;20322;-41
2022/08/09 10:44:49;;;;;;;5.63;3.23;;;24.40;50.20;24.90;101798.00;;;;5011234;28;20183;-41
2022/08/09 10:47:42;;;;;;;3.80;3.47;;;24.40;51.70;24.90;101797.00;;;;5029480;28;20186;-42
2022/08/09 10:50:14;;;;;;;3.17;2.88;;;24.40;50.80;24.90;101798.00;;;;5019415;28;20175;-42
2022/08/09 10:53:11;;;;;;;3.87;3.50;;;24.40;50.50;24.90;101787.00;;;;4866868;28;20302;-41